sensor_id;sensor_type;location;lat;lon;timestamp;pressure;altitude;pressure_sealevel;temperature;humidity
54870;BME280;40756;-37.950;145.008;2023-05-24T00:00:11;102359.44;;;13.11;43.99
54870;BME280;40756;-37.950;145.008;2023-05-24T00:02:40;102364.30;;;13.55;43.67
54870;BME280;40756;-37.950;145.008;2023-05-24T00:05:10;102371.29;;;12.80;43.59
54870;BME280;40756;-37.950;145.008;2023-05-24T00:07:39;102366.31;;;13.62;43.52
54870;BME280;40756;-37.950;145.008;2023-05-24T00:10:10;102363.91;;;13.20;43.97
54870;BME280;40756;-37.950;145.008;2023-05-24T00:12:40;102363.52;;;13.13;43.57
54870;BME280;40756;-37.950;145.008;2023-05-24T00:15:10;102363.12;;;13.22;43.40
54870;BME280;40756;-37.950;145.008;2023-05-24T00:17:40;102358.27;;;13.63;43.26
54870;BME280;40756;-37.950;145.008;2023-05-24T00:20:11;102358.75;;;13.37;43.14
54870;BME280;40756;-37.950;145.008;2023-05-24T00:22:40;102355.26;;;13.67;42.99
54870;BME280;40756;-37.950;145.008;2023-05-24T00:25:10;102347.86;;;13.88;42.79
54870;BME280;40756;-37.950;145.008;2023-05-24T00:27:39;102348.66;;;13.25;43.58
54870;BME280;40756;-37.950;145.008;2023-05-24T00:30:09;102349.18;;;13.54;43.31
54870;BME280;40756;-37.950;145.008;2023-05-24T00:32:39;102350.67;;;13.52;42.81
54870;BME280;40756;-37.950;145.008;2023-05-24T00:35:09;102354.47;;;14.02;42.16
54870;BME280;40756;-37.950;145.008;2023-05-24T00:37:39;102344.64;;;13.52;43.02
54870;BME280;40756;-37.950;145.008;2023-05-24T00:40:09;102349.78;;;14.44;42.21
54870;BME280;40756;-37.950;145.008;2023-05-24T00:42:39;102339.48;;;13.72;42.65
54870;BME280;40756;-37.950;145.008;2023-05-24T00:45:10;102336.41;;;14.02;42.03
54870;BME280;40756;-37.950;145.008;2023-05-24T00:47:39;102328.66;;;13.18;42.73
54870;BME280;40756;-37.950;145.008;2023-05-24T00:50:10;102318.91;;;13.90;42.35
54870;BME280;40756;-37.950;145.008;2023-05-24T00:52:42;102322.98;;;14.28;41.84
54870;BME280;40756;-37.950;145.008;2023-05-24T00:55:11;102318.95;;;13.65;42.32
54870;BME280;40756;-37.950;145.008;2023-05-24T00:57:43;102317.42;;;14.51;41.71
54870;BME280;40756;-37.950;145.008;2023-05-24T01:00:13;102318.63;;;14.54;41.51
54870;BME280;40756;-37.950;145.008;2023-05-24T01:02:43;102318.40;;;14.61;41.48
54870;BME280;40756;-37.950;145.008;2023-05-24T01:05:13;102311.56;;;14.40;41.95
54870;BME280;40756;-37.950;145.008;2023-05-24T01:07:53;102315.29;;;14.21;42.60
54870;BME280;40756;-37.950;145.008;2023-05-24T01:10:31;102312.08;;;14.33;42.16
54870;BME280;40756;-37.950;145.008;2023-05-24T01:13:09;102302.78;;;14.96;41.29
54870;BME280;40756;-37.950;145.008;2023-05-24T01:15:44;102299.33;;;14.88;41.10
54870;BME280;40756;-37.950;145.008;2023-05-24T01:18:21;102293.22;;;15.21;40.79
54870;BME280;40756;-37.950;145.008;2023-05-24T01:21:17;102289.85;;;15.40;39.81
54870;BME280;40756;-37.950;145.008;2023-05-24T01:23:59;102286.72;;;15.46;40.52
54870;BME280;40756;-37.950;145.008;2023-05-24T01:26:39;102280.68;;;14.15;41.74
54870;BME280;40756;-37.950;145.008;2023-05-24T01:29:11;102275.83;;;15.19;41.00
54870;BME280;40756;-37.950;145.008;2023-05-24T01:31:42;102265.69;;;15.31;40.67
54870;BME280;40756;-37.950;145.008;2023-05-24T01:34:11;102252.75;;;15.42;40.67
54870;BME280;40756;-37.950;145.008;2023-05-24T01:36:46;102241.53;;;15.72;40.79
54870;BME280;40756;-37.950;145.008;2023-05-24T01:39:18;102237.94;;;15.84;40.20
54870;BME280;40756;-37.950;145.008;2023-05-24T01:41:55;102236.61;;;15.23;39.21
54870;BME280;40756;-37.950;145.008;2023-05-24T01:44:33;102225.58;;;15.69;40.13
54870;BME280;40756;-37.950;145.008;2023-05-24T01:47:14;102216.55;;;15.18;39.68
54870;BME280;40756;-37.950;145.008;2023-05-24T01:49:50;102208.77;;;15.29;40.64
54870;BME280;40756;-37.950;145.008;2023-05-24T01:52:25;102204.07;;;15.72;39.11
54870;BME280;40756;-37.950;145.008;2023-05-24T01:54:57;102190.55;;;15.41;39.48
54870;BME280;40756;-37.950;145.008;2023-05-24T01:57:28;102174.64;;;15.68;39.47
54870;BME280;40756;-37.950;145.008;2023-05-24T02:00:01;102173.56;;;16.03;39.29
54870;BME280;40756;-37.950;145.008;2023-05-24T02:02:31;102170.73;;;15.77;39.03
54870;BME280;40756;-37.950;145.008;2023-05-24T02:05:00;102165.89;;;15.63;38.89
54870;BME280;40756;-37.950;145.008;2023-05-24T02:07:30;102160.24;;;15.68;39.91
54870;BME280;40756;-37.950;145.008;2023-05-24T02:09:59;102153.49;;;16.24;38.85
54870;BME280;40756;-37.950;145.008;2023-05-24T02:12:29;102137.53;;;16.06;39.29
54870;BME280;40756;-37.950;145.008;2023-05-24T02:14:59;102131.67;;;16.13;39.34
54870;BME280;40756;-37.950;145.008;2023-05-24T02:17:29;102118.13;;;15.58;39.24
54870;BME280;40756;-37.950;145.008;2023-05-24T02:19:58;102110.83;;;16.03;38.52
54870;BME280;40756;-37.950;145.008;2023-05-24T02:22:28;102100.74;;;16.17;39.04
54870;BME280;40756;-37.950;145.008;2023-05-24T02:24:57;102091.97;;;15.87;38.74
54870;BME280;40756;-37.950;145.008;2023-05-24T02:27:27;102084.99;;;16.43;38.70
54870;BME280;40756;-37.950;145.008;2023-05-24T02:29:56;102075.67;;;16.20;38.58
54870;BME280;40756;-37.950;145.008;2023-05-24T02:32:26;102081.04;;;16.08;37.97
54870;BME280;40756;-37.950;145.008;2023-05-24T02:34:55;102078.90;;;16.66;37.49
54870;BME280;40756;-37.950;145.008;2023-05-24T02:37:25;102070.61;;;16.64;37.47
54870;BME280;40756;-37.950;145.008;2023-05-24T02:39:55;102064.74;;;16.98;37.67
54870;BME280;40756;-37.950;145.008;2023-05-24T02:42:24;102060.31;;;16.52;37.49
54870;BME280;40756;-37.950;145.008;2023-05-24T02:44:54;102053.44;;;16.55;38.01
54870;BME280;40756;-37.950;145.008;2023-05-24T02:47:24;102046.58;;;16.39;38.02
54870;BME280;40756;-37.950;145.008;2023-05-24T02:49:53;102049.23;;;16.74;37.00
54870;BME280;40756;-37.950;145.008;2023-05-24T02:52:23;102048.10;;;16.45;36.54
54870;BME280;40756;-37.950;145.008;2023-05-24T02:54:52;102040.49;;;16.44;37.12
54870;BME280;40756;-37.950;145.008;2023-05-24T02:57:22;102033.46;;;16.97;36.99
54870;BME280;40756;-37.950;145.008;2023-05-24T02:59:51;102016.59;;;16.47;38.03
54870;BME280;40756;-37.950;145.008;2023-05-24T03:02:22;102012.08;;;16.36;37.49
54870;BME280;40756;-37.950;145.008;2023-05-24T03:04:51;102010.40;;;16.58;37.52
54870;BME280;40756;-37.950;145.008;2023-05-24T03:07:21;102005.95;;;16.27;37.91
54870;BME280;40756;-37.950;145.008;2023-05-24T03:09:51;102004.11;;;16.68;38.09
54870;BME280;40756;-37.950;145.008;2023-05-24T03:12:20;102000.81;;;17.32;37.19
54870;BME280;40756;-37.950;145.008;2023-05-24T03:14:50;101988.62;;;16.63;37.64
54870;BME280;40756;-37.950;145.008;2023-05-24T03:17:20;101987.93;;;16.78;37.44
54870;BME280;40756;-37.950;145.008;2023-05-24T03:19:49;101979.88;;;17.32;36.73
54870;BME280;40756;-37.950;145.008;2023-05-24T03:22:19;101982.34;;;16.93;36.36
54870;BME280;40756;-37.950;145.008;2023-05-24T03:24:48;101982.59;;;16.78;36.99
54870;BME280;40756;-37.950;145.008;2023-05-24T03:27:18;101978.26;;;16.47;36.71
54870;BME280;40756;-37.950;145.008;2023-05-24T03:29:47;101979.82;;;16.58;36.61
54870;BME280;40756;-37.950;145.008;2023-05-24T03:32:17;101983.44;;;16.95;36.91
54870;BME280;40756;-37.950;145.008;2023-05-24T03:34:46;101976.58;;;17.42;37.23
54870;BME280;40756;-37.950;145.008;2023-05-24T03:37:16;101971.75;;;17.30;36.31
54870;BME280;40756;-37.950;145.008;2023-05-24T03:39:46;101976.08;;;17.11;36.03
54870;BME280;40756;-37.950;145.008;2023-05-24T03:42:15;101980.20;;;16.82;36.67
54870;BME280;40756;-37.950;145.008;2023-05-24T03:44:45;101979.14;;;16.86;36.88
54870;BME280;40756;-37.950;145.008;2023-05-24T03:47:14;101982.89;;;17.58;36.18
54870;BME280;40756;-37.950;145.008;2023-05-24T03:49:44;101985.54;;;16.54;36.61
54870;BME280;40756;-37.950;145.008;2023-05-24T03:52:14;101975.47;;;16.99;36.36
54870;BME280;40756;-37.950;145.008;2023-05-24T03:54:43;101967.02;;;17.24;36.63
54870;BME280;40756;-37.950;145.008;2023-05-24T03:57:13;101959.86;;;17.12;36.41
54870;BME280;40756;-37.950;145.008;2023-05-24T03:59:42;101960.56;;;17.40;35.79
54870;BME280;40756;-37.950;145.008;2023-05-24T04:02:12;101960.48;;;16.56;36.59
54870;BME280;40756;-37.950;145.008;2023-05-24T04:04:42;101954.05;;;16.94;36.88
54870;BME280;40756;-37.950;145.008;2023-05-24T04:07:13;101951.35;;;16.65;36.63
54870;BME280;40756;-37.950;145.008;2023-05-24T04:09:42;101940.73;;;16.97;36.43
54870;BME280;40756;-37.950;145.008;2023-05-24T04:12:12;101934.35;;;17.03;35.93
54870;BME280;40756;-37.950;145.008;2023-05-24T04:14:42;101931.85;;;17.44;35.65
54870;BME280;40756;-37.950;145.008;2023-05-24T04:17:11;101928.41;;;17.34;35.50
54870;BME280;40756;-37.950;145.008;2023-05-24T04:19:41;101931.75;;;17.77;35.44
54870;BME280;40756;-37.950;145.008;2023-05-24T04:22:10;101926.18;;;17.54;35.65
54870;BME280;40756;-37.950;145.008;2023-05-24T04:24:40;101918.65;;;17.81;35.25
54870;BME280;40756;-37.950;145.008;2023-05-24T04:27:10;101902.63;;;17.27;35.77
54870;BME280;40756;-37.950;145.008;2023-05-24T04:29:42;101900.78;;;17.57;35.59
54870;BME280;40756;-37.950;145.008;2023-05-24T04:32:12;101895.64;;;16.93;35.81
54870;BME280;40756;-37.950;145.008;2023-05-24T04:34:42;101897.73;;;17.07;35.63
54870;BME280;40756;-37.950;145.008;2023-05-24T04:37:11;101898.11;;;17.01;36.56
54870;BME280;40756;-37.950;145.008;2023-05-24T04:39:42;101903.75;;;16.97;37.07
54870;BME280;40756;-37.950;145.008;2023-05-24T04:42:12;101900.69;;;16.77;35.90
54870;BME280;40756;-37.950;145.008;2023-05-24T04:44:41;101892.91;;;16.48;36.86
54870;BME280;40756;-37.950;145.008;2023-05-24T04:47:12;101894.43;;;16.87;36.99
54870;BME280;40756;-37.950;145.008;2023-05-24T04:49:42;101896.45;;;16.77;36.59
54870;BME280;40756;-37.950;145.008;2023-05-24T04:52:11;101887.59;;;16.57;36.79
54870;BME280;40756;-37.950;145.008;2023-05-24T04:54:40;101889.72;;;17.46;36.67
54870;BME280;40756;-37.950;145.008;2023-05-24T04:57:10;101894.54;;;16.98;36.32
54870;BME280;40756;-37.950;145.008;2023-05-24T04:59:40;101894.38;;;16.66;36.61
54870;BME280;40756;-37.950;145.008;2023-05-24T05:02:09;101897.20;;;16.74;37.53
54870;BME280;40756;-37.950;145.008;2023-05-24T05:04:39;101894.02;;;16.99;36.78
54870;BME280;40756;-37.950;145.008;2023-05-24T05:07:09;101896.40;;;17.13;36.58
54870;BME280;40756;-37.950;145.008;2023-05-24T05:09:39;101893.90;;;17.08;36.42
54870;BME280;40756;-37.950;145.008;2023-05-24T05:12:09;101894.10;;;16.55;36.95
54870;BME280;40756;-37.950;145.008;2023-05-24T05:14:38;101891.37;;;16.60;39.48
54870;BME280;40756;-37.950;145.008;2023-05-24T05:17:07;101880.96;;;17.13;38.33
54870;BME280;40756;-37.950;145.008;2023-05-24T05:19:37;101875.91;;;17.25;39.01
54870;BME280;40756;-37.950;145.008;2023-05-24T05:22:06;101866.77;;;17.11;37.39
54870;BME280;40756;-37.950;145.008;2023-05-24T05:24:36;101863.77;;;17.10;36.46
54870;BME280;40756;-37.950;145.008;2023-05-24T05:27:06;101856.70;;;16.73;37.10
54870;BME280;40756;-37.950;145.008;2023-05-24T05:29:35;101864.19;;;16.68;37.08
54870;BME280;40756;-37.950;145.008;2023-05-24T05:32:05;101859.01;;;16.43;37.05
54870;BME280;40756;-37.950;145.008;2023-05-24T05:34:34;101860.46;;;16.54;37.54
54870;BME280;40756;-37.950;145.008;2023-05-24T05:37:04;101856.21;;;16.83;37.39
54870;BME280;40756;-37.950;145.008;2023-05-24T05:39:34;101854.48;;;17.00;37.06
54870;BME280;40756;-37.950;145.008;2023-05-24T05:42:03;101857.93;;;16.17;37.44
54870;BME280;40756;-37.950;145.008;2023-05-24T05:44:33;101857.22;;;17.00;37.47
54870;BME280;40756;-37.950;145.008;2023-05-24T05:47:02;101851.25;;;16.23;38.17
54870;BME280;40756;-37.950;145.008;2023-05-24T05:49:32;101852.12;;;15.71;38.95
54870;BME280;40756;-37.950;145.008;2023-05-24T05:52:03;101842.60;;;16.32;38.58
54870;BME280;40756;-37.950;145.008;2023-05-24T05:54:32;101830.87;;;16.83;37.86
54870;BME280;40756;-37.950;145.008;2023-05-24T05:57:02;101833.08;;;16.58;38.46
54870;BME280;40756;-37.950;145.008;2023-05-24T05:59:36;101819.16;;;16.61;37.77
54870;BME280;40756;-37.950;145.008;2023-05-24T06:02:06;101809.44;;;17.05;37.04
54870;BME280;40756;-37.950;145.008;2023-05-24T06:04:36;101800.55;;;16.73;37.88
54870;BME280;40756;-37.950;145.008;2023-05-24T06:07:06;101795.70;;;16.32;37.88
54870;BME280;40756;-37.950;145.008;2023-05-24T06:09:36;101797.84;;;16.52;37.99
54870;BME280;40756;-37.950;145.008;2023-05-24T06:12:06;101797.34;;;16.50;37.55
54870;BME280;40756;-37.950;145.008;2023-05-24T06:14:35;101798.45;;;16.52;37.93
54870;BME280;40756;-37.950;145.008;2023-05-24T06:17:05;101800.80;;;16.33;38.64
54870;BME280;40756;-37.950;145.008;2023-05-24T06:19:34;101797.68;;;16.09;38.67
54870;BME280;40756;-37.950;145.008;2023-05-24T06:22:04;101796.01;;;15.91;39.03
54870;BME280;40756;-37.950;145.008;2023-05-24T06:24:33;101790.91;;;16.08;39.38
54870;BME280;40756;-37.950;145.008;2023-05-24T06:27:03;101786.96;;;16.29;39.05
54870;BME280;40756;-37.950;145.008;2023-05-24T06:29:32;101787.08;;;15.92;38.96
54870;BME280;40756;-37.950;145.008;2023-05-24T06:32:02;101781.01;;;16.00;39.12
54870;BME280;40756;-37.950;145.008;2023-05-24T06:34:32;101780.31;;;15.73;39.52
54870;BME280;40756;-37.950;145.008;2023-05-24T06:37:01;101774.43;;;15.50;39.30
54870;BME280;40756;-37.950;145.008;2023-05-24T06:39:31;101773.11;;;16.07;39.13
54870;BME280;40756;-37.950;145.008;2023-05-24T06:42:01;101771.17;;;15.73;39.57
54870;BME280;40756;-37.950;145.008;2023-05-24T06:44:30;101765.47;;;15.51;39.60
54870;BME280;40756;-37.950;145.008;2023-05-24T06:47:00;101756.02;;;15.66;40.25
54870;BME280;40756;-37.950;145.008;2023-05-24T06:49:30;101741.50;;;15.56;39.83
54870;BME280;40756;-37.950;145.008;2023-05-24T06:51:59;101745.16;;;15.59;40.20
54870;BME280;40756;-37.950;145.008;2023-05-24T06:54:29;101748.99;;;15.35;40.24
54870;BME280;40756;-37.950;145.008;2023-05-24T06:56:59;101749.55;;;15.25;40.28
54870;BME280;40756;-37.950;145.008;2023-05-24T06:59:28;101748.51;;;15.65;40.31
54870;BME280;40756;-37.950;145.008;2023-05-24T07:01:58;101733.70;;;15.80;40.20
54870;BME280;40756;-37.950;145.008;2023-05-24T07:04:27;101721.08;;;15.41;40.52
54870;BME280;40756;-37.950;145.008;2023-05-24T07:06:57;101712.84;;;15.72;40.87
54870;BME280;40756;-37.950;145.008;2023-05-24T07:09:27;101699.31;;;15.14;40.42
54870;BME280;40756;-37.950;145.008;2023-05-24T07:11:57;101706.06;;;15.51;40.59
54870;BME280;40756;-37.950;145.008;2023-05-24T07:14:26;101710.61;;;14.99;41.11
54870;BME280;40756;-37.950;145.008;2023-05-24T07:16:56;101705.78;;;15.56;40.29
54870;BME280;40756;-37.950;145.008;2023-05-24T07:19:26;101703.70;;;15.58;40.78
54870;BME280;40756;-37.950;145.008;2023-05-24T07:21:56;101708.88;;;15.64;40.65
54870;BME280;40756;-37.950;145.008;2023-05-24T07:24:25;101717.20;;;15.27;40.50
54870;BME280;40756;-37.950;145.008;2023-05-24T07:26:54;101709.86;;;15.53;40.29
54870;BME280;40756;-37.950;145.008;2023-05-24T07:29:24;101710.52;;;15.22;40.59
54870;BME280;40756;-37.950;145.008;2023-05-24T07:31:55;101721.41;;;15.26;40.43
54870;BME280;40756;-37.950;145.008;2023-05-24T07:34:24;101719.99;;;15.18;40.60
54870;BME280;40756;-37.950;145.008;2023-05-24T07:36:54;101716.60;;;15.03;40.63
54870;BME280;40756;-37.950;145.008;2023-05-24T07:39:23;101713.66;;;14.84;41.35
54870;BME280;40756;-37.950;145.008;2023-05-24T07:41:53;101715.34;;;15.00;40.59
54870;BME280;40756;-37.950;145.008;2023-05-24T07:44:22;101707.71;;;14.88;40.51
54870;BME280;40756;-37.950;145.008;2023-05-24T07:46:52;101705.00;;;15.30;43.49
54870;BME280;40756;-37.950;145.008;2023-05-24T07:49:22;101713.40;;;15.97;41.20
54870;BME280;40756;-37.950;145.008;2023-05-24T07:51:51;101710.64;;;15.97;39.30
54870;BME280;40756;-37.950;145.008;2023-05-24T07:54:21;101714.01;;;15.95;38.85
54870;BME280;40756;-37.950;145.008;2023-05-24T07:56:50;101716.28;;;15.85;39.02
54870;BME280;40756;-37.950;145.008;2023-05-24T07:59:20;101722.09;;;15.60;39.27
54870;BME280;40756;-37.950;145.008;2023-05-24T08:01:50;101728.18;;;15.39;39.43
54870;BME280;40756;-37.950;145.008;2023-05-24T08:04:19;101737.25;;;15.27;39.92
54870;BME280;40756;-37.950;145.008;2023-05-24T08:06:49;101738.19;;;15.72;39.65
54870;BME280;40756;-37.950;145.008;2023-05-24T08:09:18;101741.49;;;15.15;39.94
54870;BME280;40756;-37.950;145.008;2023-05-24T08:11:48;101746.96;;;15.09;39.72
54870;BME280;40756;-37.950;145.008;2023-05-24T08:14:18;101749.50;;;15.21;39.93
54870;BME280;40756;-37.950;145.008;2023-05-24T08:16:47;101745.19;;;14.63;40.58
54870;BME280;40756;-37.950;145.008;2023-05-24T08:19:17;101748.30;;;14.56;40.77
54870;BME280;40756;-37.950;145.008;2023-05-24T08:21:46;101750.23;;;15.60;42.34
54870;BME280;40756;-37.950;145.008;2023-05-24T08:24:16;101750.64;;;16.03;39.52
54870;BME280;40756;-37.950;145.008;2023-05-24T08:26:45;101748.01;;;15.21;39.97
54870;BME280;40756;-37.950;145.008;2023-05-24T08:29:15;101748.00;;;14.58;40.32
54870;BME280;40756;-37.950;145.008;2023-05-24T08:31:45;101745.20;;;14.91;40.23
54870;BME280;40756;-37.950;145.008;2023-05-24T08:34:15;101749.94;;;15.08;40.36
54870;BME280;40756;-37.950;145.008;2023-05-24T08:36:44;101746.20;;;14.77;40.59
54870;BME280;40756;-37.950;145.008;2023-05-24T08:39:14;101738.93;;;14.89;40.23
54870;BME280;40756;-37.950;145.008;2023-05-24T08:41:43;101739.19;;;14.75;40.59
54870;BME280;40756;-37.950;145.008;2023-05-24T08:44:13;101744.39;;;15.24;40.50
54870;BME280;40756;-37.950;145.008;2023-05-24T08:46:43;101750.49;;;14.46;41.21
54870;BME280;40756;-37.950;145.008;2023-05-24T08:49:13;101753.42;;;15.05;40.36
54870;BME280;40756;-37.950;145.008;2023-05-24T08:51:43;101753.25;;;14.94;40.73
54870;BME280;40756;-37.950;145.008;2023-05-24T08:54:14;101751.89;;;14.97;40.49
54870;BME280;40756;-37.950;145.008;2023-05-24T08:56:44;101745.52;;;14.84;41.01
54870;BME280;40756;-37.950;145.008;2023-05-24T08:59:13;101733.63;;;14.77;40.60
54870;BME280;40756;-37.950;145.008;2023-05-24T09:01:44;101728.86;;;14.67;40.91
54870;BME280;40756;-37.950;145.008;2023-05-24T09:04:20;101723.23;;;14.92;40.99
54870;BME280;40756;-37.950;145.008;2023-05-24T09:06:52;101718.43;;;14.64;40.91
54870;BME280;40756;-37.950;145.008;2023-05-24T09:09:26;101721.55;;;14.35;41.04
54870;BME280;40756;-37.950;145.008;2023-05-24T09:11:58;101723.55;;;14.84;40.80
54870;BME280;40756;-37.950;145.008;2023-05-24T09:14:31;101727.88;;;14.73;40.61
54870;BME280;40756;-37.950;145.008;2023-05-24T09:17:01;101729.67;;;14.82;39.73
54870;BME280;40756;-37.950;145.008;2023-05-24T09:19:31;101727.81;;;15.03;40.11
54870;BME280;40756;-37.950;145.008;2023-05-24T09:22:00;101733.13;;;14.91;40.19
54870;BME280;40756;-37.950;145.008;2023-05-24T09:24:29;101729.45;;;14.86;39.77
54870;BME280;40756;-37.950;145.008;2023-05-24T09:27:05;101732.37;;;14.83;40.07
54870;BME280;40756;-37.950;145.008;2023-05-24T09:29:36;101727.56;;;15.13;40.14
54870;BME280;40756;-37.950;145.008;2023-05-24T09:32:08;101728.10;;;14.65;40.16
54870;BME280;40756;-37.950;145.008;2023-05-24T09:34:39;101723.28;;;15.00;39.62
54870;BME280;40756;-37.950;145.008;2023-05-24T09:37:12;101719.12;;;14.75;40.10
54870;BME280;40756;-37.950;145.008;2023-05-24T09:39:43;101721.25;;;14.87;40.22
54870;BME280;40756;-37.950;145.008;2023-05-24T09:42:16;101722.76;;;14.88;39.68
54870;BME280;40756;-37.950;145.008;2023-05-24T09:44:46;101719.93;;;14.77;39.69
54870;BME280;40756;-37.950;145.008;2023-05-24T09:47:15;101718.70;;;14.90;39.63
54870;BME280;40756;-37.950;145.008;2023-05-24T09:49:45;101723.20;;;14.66;40.45
54870;BME280;40756;-37.950;145.008;2023-05-24T09:52:14;101721.32;;;14.59;40.04
54870;BME280;40756;-37.950;145.008;2023-05-24T09:54:44;101720.02;;;14.21;40.64
54870;BME280;40756;-37.950;145.008;2023-05-24T09:57:16;101719.13;;;14.86;40.04
54870;BME280;40756;-37.950;145.008;2023-05-24T09:59:45;101716.99;;;15.19;39.45
54870;BME280;40756;-37.950;145.008;2023-05-24T10:02:16;101718.27;;;14.92;39.70
54870;BME280;40756;-37.950;145.008;2023-05-24T10:04:45;101714.56;;;14.81;39.54
54870;BME280;40756;-37.950;145.008;2023-05-24T10:07:15;101710.80;;;14.75;39.31
54870;BME280;40756;-37.950;145.008;2023-05-24T10:09:46;101711.29;;;14.85;39.51
54870;BME280;40756;-37.950;145.008;2023-05-24T10:12:16;101708.16;;;14.76;39.83
54870;BME280;40756;-37.950;145.008;2023-05-24T10:14:46;101704.50;;;14.96;39.75
54870;BME280;40756;-37.950;145.008;2023-05-24T10:17:17;101706.01;;;14.87;39.55
54870;BME280;40756;-37.950;145.008;2023-05-24T10:19:46;101705.86;;;14.79;39.70
54870;BME280;40756;-37.950;145.008;2023-05-24T10:22:17;101700.00;;;14.40;39.65
54870;BME280;40756;-37.950;145.008;2023-05-24T10:24:52;101697.29;;;14.83;39.26
54870;BME280;40756;-37.950;145.008;2023-05-24T10:27:26;101688.98;;;13.97;39.99
54870;BME280;40756;-37.950;145.008;2023-05-24T10:30:02;101688.00;;;14.57;39.68
54870;BME280;40756;-37.950;145.008;2023-05-24T10:32:37;101688.78;;;14.19;39.83
54870;BME280;40756;-37.950;145.008;2023-05-24T10:35:07;101679.26;;;14.82;39.74
54870;BME280;40756;-37.950;145.008;2023-05-24T10:37:39;101675.38;;;15.03;38.81
54870;BME280;40756;-37.950;145.008;2023-05-24T10:40:16;101670.83;;;14.64;39.16
54870;BME280;40756;-37.950;145.008;2023-05-24T10:42:47;101666.43;;;14.36;39.32
54870;BME280;40756;-37.950;145.008;2023-05-24T10:45:36;101668.32;;;14.97;38.95
54870;BME280;40756;-37.950;145.008;2023-05-24T10:49:14;101665.74;;;15.01;39.02
54870;BME280;40756;-37.950;145.008;2023-05-24T10:51:43;101652.07;;;15.26;39.10
54870;BME280;40756;-37.950;145.008;2023-05-24T10:54:14;101653.71;;;14.85;38.46
54870;BME280;40756;-37.950;145.008;2023-05-24T10:56:46;101662.20;;;14.84;38.80
54870;BME280;40756;-37.950;145.008;2023-05-24T10:59:29;101657.16;;;14.26;39.04
54870;BME280;40756;-37.950;145.008;2023-05-24T11:02:00;101651.32;;;14.95;39.09
54870;BME280;40756;-37.950;145.008;2023-05-24T11:04:36;101647.37;;;14.78;39.01
54870;BME280;40756;-37.950;145.008;2023-05-24T11:07:07;101642.29;;;14.84;38.55
54870;BME280;40756;-37.950;145.008;2023-05-24T11:09:38;101639.72;;;15.02;38.75
54870;BME280;40756;-37.950;145.008;2023-05-24T11:12:09;101644.52;;;15.17;38.80
54870;BME280;40756;-37.950;145.008;2023-05-24T11:14:39;101632.19;;;15.32;38.14
54870;BME280;40756;-37.950;145.008;2023-05-24T11:17:09;101632.01;;;14.35;38.97
54870;BME280;40756;-37.950;145.008;2023-05-24T11:19:47;101620.14;;;14.91;39.09
54870;BME280;40756;-37.950;145.008;2023-05-24T11:22:20;101610.60;;;15.00;38.44
54870;BME280;40756;-37.950;145.008;2023-05-24T11:24:51;101611.17;;;14.99;38.44
54870;BME280;40756;-37.950;145.008;2023-05-24T11:27:21;101609.61;;;14.62;38.69
54870;BME280;40756;-37.950;145.008;2023-05-24T11:29:52;101611.71;;;14.91;38.50
54870;BME280;40756;-37.950;145.008;2023-05-24T11:32:21;101605.44;;;14.56;38.57
54870;BME280;40756;-37.950;145.008;2023-05-24T11:34:51;101600.26;;;15.09;38.33
54870;BME280;40756;-37.950;145.008;2023-05-24T11:37:21;101598.90;;;14.44;38.57
54870;BME280;40756;-37.950;145.008;2023-05-24T11:39:51;101592.93;;;14.92;38.12
54870;BME280;40756;-37.950;145.008;2023-05-24T11:42:21;101595.03;;;15.04;38.03
54870;BME280;40756;-37.950;145.008;2023-05-24T11:44:51;101588.37;;;15.21;37.22
54870;BME280;40756;-37.950;145.008;2023-05-24T11:47:21;101584.76;;;15.07;37.92
54870;BME280;40756;-37.950;145.008;2023-05-24T11:49:51;101583.69;;;15.12;37.93
54870;BME280;40756;-37.950;145.008;2023-05-24T11:52:21;101573.96;;;15.09;37.55
54870;BME280;40756;-37.950;145.008;2023-05-24T11:54:51;101574.45;;;15.22;37.48
54870;BME280;40756;-37.950;145.008;2023-05-24T11:57:25;101576.55;;;15.11;37.19
54870;BME280;40756;-37.950;145.008;2023-05-24T11:59:57;101571.11;;;14.85;37.02
54870;BME280;40756;-37.950;145.008;2023-05-24T12:02:32;101577.82;;;15.39;36.83
54870;BME280;40756;-37.950;145.008;2023-05-24T12:05:07;101571.87;;;15.29;40.92
54870;BME280;40756;-37.950;145.008;2023-05-24T12:07:37;101563.24;;;16.08;36.33
54870;BME280;40756;-37.950;145.008;2023-05-24T12:10:07;101550.63;;;16.50;36.89
54870;BME280;40756;-37.950;145.008;2023-05-24T12:12:43;101547.49;;;16.30;34.89
54870;BME280;40756;-37.950;145.008;2023-05-24T12:15:13;101543.46;;;15.80;35.13
54870;BME280;40756;-37.950;145.008;2023-05-24T12:17:46;101538.21;;;15.74;35.89
54870;BME280;40756;-37.950;145.008;2023-05-24T12:20:16;101536.49;;;15.30;35.70
54870;BME280;40756;-37.950;145.008;2023-05-24T12:22:49;101540.69;;;15.69;35.87
54870;BME280;40756;-37.950;145.008;2023-05-24T12:25:21;101534.91;;;15.49;35.76
54870;BME280;40756;-37.950;145.008;2023-05-24T12:27:54;101520.68;;;15.24;36.29
54870;BME280;40756;-37.950;145.008;2023-05-24T12:30:25;101509.43;;;15.18;36.31
54870;BME280;40756;-37.950;145.008;2023-05-24T12:32:55;101516.04;;;15.13;36.57
54870;BME280;40756;-37.950;145.008;2023-05-24T12:35:25;101515.42;;;15.81;35.83
54870;BME280;40756;-37.950;145.008;2023-05-24T12:37:59;101507.48;;;15.58;36.11